Back to Top

Language: 

My Weather Underground Personal Weather Station Historical Data with Graphs...

Delerius Weather Station Historical Data
Daily Summary for May 25, 2017 Units:  English    Metric   Both
« Previous Day
Next Day »
Daily Weekly Monthly Yearly Custom
  High: Low: Average:
Temperature: 81.3 °F 50.7 °F 68.5 °F
Dew Point: 62.3 °F 48.9 °F 57.7 °F
Humidity: 96 % 47 % 71 %
Wind Speed: 7.0 mph 0.0 mph 2.8 mph
Wind Gust: 14.0 mph - -
Wind:- - SE
Pressure: 30.27 in 30.13 in -
Precipitation: 0.00 in    
Historical Graphs
 
 
Tabular Data for May 25, 2017
Time Temperature Dew Point Pressure Wind Wind Speed Wind Gust Humidity Rainfall Rate (Hourly) solar Conditions
00:04 58.6 °F 55.7 °F 30.26 in WNW 3.0 mph 5.0 mph 90 % 0.00 in 0 W/m2
00:09 58.5 °F 55.5 °F 30.26 in WNW 2.0 mph 5.0 mph 90 % 0.00 in 0 W/m2
00:14 58.5 °F 55.5 °F 30.27 in WNW 1.0 mph 4.0 mph 90 % 0.00 in 0 W/m2
00:19 58.3 °F 55.4 °F 30.27 in WNW 1.0 mph 4.0 mph 90 % 0.00 in 0 W/m2
00:24 58.1 °F 55.2 °F 30.26 in Calm   2.0 mph 90 % 0.00 in 0 W/m2
00:29 57.9 °F 55.0 °F 30.26 in Calm     90 % 0.00 in 0 W/m2
00:34 57.7 °F 54.8 °F 30.26 in Calm   1.0 mph 90 % 0.00 in 0 W/m2
00:39 57.4 °F 54.5 °F 30.26 in Calm   2.0 mph 90 % 0.00 in 0 W/m2
00:44 57.2 °F 54.3 °F 30.26 in Calm   2.0 mph 90 % 0.00 in 0 W/m2
00:49 56.8 °F 53.9 °F 30.26 in Calm   2.0 mph 90 % 0.00 in 0 W/m2
00:54 56.7 °F 53.8 °F 30.26 in Calm   2.0 mph 90 % 0.00 in 0 W/m2
00:59 56.5 °F 53.6 °F 30.26 in Calm     90 % 0.00 in 0 W/m2
01:04 56.1 °F 53.2 °F 30.26 in Calm   2.0 mph 90 % 0.00 in 0 W/m2
01:09 55.9 °F 53.0 °F 30.26 in Calm   2.0 mph 90 % 0.00 in 0 W/m2
01:14 55.8 °F 53.2 °F 30.25 in WNW 1.0 mph 4.0 mph 91 % 0.00 in 0 W/m2
01:19 55.6 °F 53.0 °F 30.26 in WNW 2.0 mph 5.0 mph 91 % 0.00 in 0 W/m2
01:24 55.8 °F 53.5 °F 30.25 in WNW 3.0 mph 6.0 mph 92 % 0.00 in 0 W/m2
01:29 55.9 °F 53.6 °F 30.25 in WNW 2.0 mph 6.0 mph 92 % 0.00 in 0 W/m2
01:34 55.4 °F 52.8 °F 30.25 in WNW 1.0 mph 5.0 mph 91 % 0.00 in 0 W/m2
01:39 55.0 °F 52.5 °F 30.25 in Calm     91 % 0.00 in 0 W/m2
01:44 54.7 °F 52.1 °F 30.25 in Calm     91 % 0.00 in 0 W/m2
01:49 54.5 °F 51.9 °F 30.25 in Calm     91 % 0.00 in 0 W/m2
01:54 54.3 °F 51.7 °F 30.25 in Calm     91 % 0.00 in 0 W/m2
01:59 54.0 °F 51.4 °F 30.25 in Calm   2.0 mph 91 % 0.00 in 0 W/m2
02:04 54.0 °F 51.4 °F 30.25 in Calm   2.0 mph 91 % 0.00 in 0 W/m2
02:09 54.0 °F 51.7 °F 30.25 in Calm   2.0 mph 92 % 0.00 in 0 W/m2
02:14 54.0 °F 51.7 °F 30.25 in Calm     92 % 0.00 in 0 W/m2
02:19 54.0 °F 51.7 °F 30.25 in Calm     92 % 0.00 in 0 W/m2
02:24 53.8 °F 51.5 °F 30.25 in Calm     92 % 0.00 in 0 W/m2
02:29 53.6 °F 51.3 °F 30.25 in Calm     92 % 0.00 in 0 W/m2
02:34 53.4 °F 51.2 °F 30.25 in Calm     92 % 0.00 in 0 W/m2
02:39 53.4 °F 51.4 °F 30.25 in Calm     93 % 0.00 in 0 W/m2
02:44 53.4 °F 51.4 °F 30.25 in Calm     93 % 0.00 in 0 W/m2
02:49 53.2 °F 51.3 °F 30.25 in WNW 1.0 mph 2.0 mph 93 % 0.00 in 0 W/m2
02:55 53.1 °F 51.1 °F 30.25 in WNW 1.0 mph 2.0 mph 93 % 0.00 in 0 W/m2
03:00 53.1 °F 50.8 °F 30.25 in Calm   2.0 mph 92 % 0.00 in 0 W/m2
03:05 52.9 °F 50.9 °F 30.25 in Calm     93 % 0.00 in 0 W/m2
03:10 52.7 °F 50.7 °F 30.25 in Calm   4.0 mph 93 % 0.00 in 0 W/m2
03:15 52.7 °F 50.7 °F 30.25 in Calm   4.0 mph 93 % 0.00 in 0 W/m2
03:20 52.7 °F 50.7 °F 30.25 in Calm     93 % 0.00 in 0 W/m2
03:25 52.7 °F 50.7 °F 30.25 in Calm     93 % 0.00 in 0 W/m2
03:30 52.5 °F 50.6 °F 30.25 in Calm     93 % 0.00 in 0 W/m2
03:35 52.3 °F 50.4 °F 30.25 in Calm   2.0 mph 93 % 0.00 in 0 W/m2
03:40 52.5 °F 50.8 °F 30.25 in Calm   2.0 mph 94 % 0.00 in 0 W/m2
03:45 52.5 °F 50.6 °F 30.25 in Calm   1.0 mph 93 % 0.00 in 0 W/m2
03:50 52.3 °F 50.4 °F 30.25 in Calm     93 % 0.00 in 0 W/m2
03:55 52.2 °F 50.2 °F 30.25 in Calm     93 % 0.00 in 0 W/m2
04:00 52.0 °F 50.0 °F 30.25 in Calm     93 % 0.00 in 0 W/m2
04:05 51.6 °F 49.4 °F 30.25 in Calm     92 % 0.00 in 0 W/m2
04:10 51.4 °F 49.5 °F 30.25 in Calm     93 % 0.00 in 0 W/m2
04:15 51.4 °F 49.5 °F 30.24 in Calm     93 % 0.00 in 0 W/m2
04:20 51.3 °F 49.3 °F 30.25 in Calm     93 % 0.00 in 0 W/m2
04:25 51.1 °F 49.1 °F 30.25 in Calm     93 % 0.00 in 0 W/m2
04:30 51.1 °F 49.1 °F 30.24 in Calm   2.0 mph 93 % 0.00 in 0 W/m2
04:35 50.9 °F 48.9 °F 30.24 in Calm   2.0 mph 93 % 0.00 in 0 W/m2
04:40 50.9 °F 49.2 °F 30.24 in Calm     94 % 0.00 in 0 W/m2
04:45 50.9 °F 49.2 °F 30.24 in Calm     94 % 0.00 in 0 W/m2
04:50 50.9 °F 49.2 °F 30.24 in Calm     94 % 0.00 in 0 W/m2
04:55 50.7 °F 49.1 °F 30.25 in Calm     94 % 0.00 in 5 W/m2
05:00 50.7 °F 49.1 °F 30.24 in Calm     94 % 0.00 in 7 W/m2
05:05 50.7 °F 49.1 °F 30.24 in Calm     94 % 0.00 in 9 W/m2
05:10 50.7 °F 49.1 °F 30.25 in Calm     94 % 0.00 in 11 W/m2
05:15 50.9 °F 49.2 °F 30.25 in Calm     94 % 0.00 in 11 W/m2
05:20 50.9 °F 49.5 °F 30.25 in Calm     95 % 0.00 in 12 W/m2
05:25 51.1 °F 49.4 °F 30.25 in Calm     94 % 0.00 in 14 W/m2
05:30 50.9 °F 49.2 °F 30.25 in Calm     94 % 0.00 in 16 W/m2
05:35 51.1 °F 49.7 °F 30.25 in Calm     95 % 0.00 in 18 W/m2
05:40 51.1 °F 49.7 °F 30.25 in Calm     95 % 0.00 in 19 W/m2
05:45 51.3 °F 49.9 °F 30.25 in Calm     95 % 0.00 in 21 W/m2
05:50 51.1 °F 49.4 °F 30.25 in Calm     94 % 0.00 in 23 W/m2
05:56 51.1 °F 49.4 °F 30.25 in Calm     94 % 0.00 in 23 W/m2
06:01 51.1 °F 49.7 °F 30.26 in Calm     95 % 0.00 in 86 W/m2
06:06 51.4 °F 50.1 °F 30.26 in Calm     95 % 0.00 in 102 W/m2
06:11 52.0 °F 50.9 °F 30.26 in Calm     96 % 0.00 in 97 W/m2
06:16 52.5 °F 51.4 °F 30.26 in Calm     96 % 0.00 in 109 W/m2
06:21 53.2 °F 52.1 °F 30.26 in Calm     96 % 0.00 in 30 W/m2
06:26 53.8 °F 52.7 °F 30.26 in Calm     96 % 0.00 in 33 W/m2
06:31 54.3 °F 53.2 °F 30.26 in Calm     96 % 0.00 in 35 W/m2
06:36 54.7 °F 53.3 °F 30.26 in Calm     95 % 0.00 in 42 W/m2
06:41 55.0 °F 53.3 °F 30.26 in Calm     94 % 0.00 in 44 W/m2
06:46 55.2 °F 53.5 °F 30.26 in Calm     94 % 0.00 in 65 W/m2
06:51 55.2 °F 53.2 °F 30.26 in Calm     93 % 0.00 in 58 W/m2
06:56 55.4 °F 53.4 °F 30.26 in Calm     93 % 0.00 in 76 W/m2
07:01 55.8 °F 53.8 °F 30.26 in Calm     93 % 0.00 in 98 W/m2
07:06 56.1 °F 54.1 °F 30.26 in Calm     93 % 0.00 in 97 W/m2
07:11 56.7 °F 54.7 °F 30.26 in Calm     93 % 0.00 in 197 W/m2
07:16 57.4 °F 55.1 °F 30.26 in Calm     92 % 0.00 in 248 W/m2
07:21 58.3 °F 56.0 °F 30.26 in Calm     92 % 0.00 in 262 W/m2
07:26 59.4 °F 56.4 °F 30.26 in Calm     90 % 0.00 in 288 W/m2
07:31 60.1 °F 56.5 °F 30.26 in Calm     88 % 0.00 in 278 W/m2
07:36 60.4 °F 56.2 °F 30.26 in Calm     86 % 0.00 in 304 W/m2
07:41 61.0 °F 56.4 °F 30.26 in Calm     85 % 0.00 in 318 W/m2
07:46 61.7 °F 56.8 °F 30.26 in Calm     84 % 0.00 in 334 W/m2
07:51 62.4 °F 56.9 °F 30.26 in Calm     82 % 0.00 in 343 W/m2
07:56 63.1 °F 57.2 °F 30.26 in Calm     81 % 0.00 in 357 W/m2
08:01 64.0 °F 57.4 °F 30.26 in Calm   2.0 mph 79 % 0.00 in 387 W/m2
08:06 65.1 °F 58.4 °F 30.26 in WNW 1.0 mph 2.0 mph 79 % 0.00 in 392 W/m2
08:11 65.7 °F 58.3 °F 30.26 in WNW 1.0 mph 2.0 mph 77 % 0.00 in 397 W/m2
08:17 66.4 °F 58.2 °F 30.26 in Calm   2.0 mph 75 % 0.00 in 399 W/m2
08:21 66.9 °F 58.4 °F 30.26 in Calm   2.0 mph 74 % 0.00 in 427 W/m2
08:27 67.6 °F 58.7 °F 30.26 in Calm   1.0 mph 73 % 0.00 in 461 W/m2
08:32 68.0 °F 58.6 °F 30.26 in Calm   1.0 mph 72 % 0.00 in 330 W/m2
08:37 68.2 °F 58.4 °F 30.26 in NW 1.0 mph 2.0 mph 71 % 0.00 in 334 W/m2
08:42 68.2 °F 58.8 °F 30.26 in NNE 1.0 mph 2.0 mph 72 % 0.00 in 239 W/m2
08:47 68.4 °F 59.0 °F 30.26 in ENE 1.0 mph 5.0 mph 72 % 0.00 in 508 W/m2
08:52 68.4 °F 59.0 °F 30.26 in East 2.0 mph 5.0 mph 72 % 0.00 in 545 W/m2
08:57 69.1 °F 59.7 °F 30.26 in East 1.0 mph 4.0 mph 72 % 0.00 in 513 W/m2
09:02 69.6 °F 59.4 °F 30.25 in East 1.0 mph 4.0 mph 70 % 0.00 in 503 W/m2
09:07 70.0 °F 59.3 °F 30.26 in East 1.0 mph 5.0 mph 69 % 0.00 in 533 W/m2
09:12 70.3 °F 59.7 °F 30.26 in ESE 1.0 mph 5.0 mph 69 % 0.00 in 566 W/m2
09:17 70.3 °F 59.3 °F 30.25 in SSE 2.0 mph 6.0 mph 68 % 0.00 in 571 W/m2
09:22 70.0 °F 59.7 °F 30.26 in SSE 3.0 mph 6.0 mph 70 % 0.00 in 580 W/m2
09:27 70.3 °F 60.1 °F 30.25 in SSE 2.0 mph 5.0 mph 70 % 0.00 in 594 W/m2
09:32 70.5 °F 59.9 °F 30.25 in SE 2.0 mph 7.0 mph 69 % 0.00 in 610 W/m2
09:37 70.3 °F 60.1 °F 30.25 in SSE 2.0 mph 7.0 mph 70 % 0.00 in 612 W/m2
09:42 70.5 °F 59.9 °F 30.25 in South 2.0 mph 6.0 mph 69 % 0.00 in 633 W/m2
09:47 71.1 °F 60.4 °F 30.25 in South 1.0 mph 5.0 mph 69 % 0.00 in 650 W/m2
09:52 71.4 °F 59.9 °F 30.25 in SSE 2.0 mph 6.0 mph 67 % 0.00 in 656 W/m2
09:57 71.2 °F 59.7 °F 30.25 in SSE 3.0 mph 6.0 mph 67 % 0.00 in 663 W/m2
10:02 71.2 °F 59.7 °F 30.25 in SSE 2.0 mph 5.0 mph 67 % 0.00 in 673 W/m2
10:07 71.4 °F 59.9 °F 30.25 in SSE 3.0 mph 6.0 mph 67 % 0.00 in 686 W/m2
10:12 71.4 °F 59.9 °F 30.25 in SE 3.0 mph 6.0 mph 67 % 0.00 in 694 W/m2
10:17 72.0 °F 60.4 °F 30.25 in SE 2.0 mph 7.0 mph 67 % 0.00 in 707 W/m2
10:22 72.3 °F 59.9 °F 30.24 in SE 2.0 mph 7.0 mph 65 % 0.00 in 715 W/m2
10:27 73.0 °F 60.6 °F 30.24 in SE 1.0 mph 5.0 mph 65 % 0.00 in 728 W/m2
10:32 73.8 °F 60.8 °F 30.25 in ESE 2.0 mph 5.0 mph 64 % 0.00 in 731 W/m2
10:37 74.1 °F 60.3 °F 30.24 in East 2.0 mph 6.0 mph 62 % 0.00 in 745 W/m2
10:42 74.5 °F 60.6 °F 30.24 in East 1.0 mph 6.0 mph 62 % 0.00 in 742 W/m2
10:47 74.7 °F 60.3 °F 30.24 in East 1.0 mph 5.0 mph 61 % 0.00 in 759 W/m2
10:52 75.0 °F 61.1 °F 30.24 in ESE 2.0 mph 7.0 mph 62 % 0.00 in 766 W/m2
10:57 75.0 °F 61.1 °F 30.24 in ESE 3.0 mph 7.0 mph 62 % 0.00 in 766 W/m2
11:02 75.4 °F 61.9 °F 30.24 in ESE 2.0 mph 8.0 mph 63 % 0.00 in 784 W/m2
11:07 75.7 °F 61.8 °F 30.24 in ESE 3.0 mph 8.0 mph 62 % 0.00 in 779 W/m2
11:12 75.7 °F 61.3 °F 30.24 in ESE 2.0 mph 8.0 mph 61 % 0.00 in 786 W/m2
11:17 75.9 °F 61.5 °F 30.23 in East 2.0 mph 6.0 mph 61 % 0.00 in 809 W/m2
11:22 76.3 °F 61.8 °F 30.24 in East 3.0 mph 6.0 mph 61 % 0.00 in 810 W/m2
11:27 76.5 °F 61.5 °F 30.23 in East 3.0 mph 9.0 mph 60 % 0.00 in 828 W/m2
11:32 76.3 °F 61.8 °F 30.23 in ESE 4.0 mph 9.0 mph 61 % 0.00 in 823 W/m2
11:37 76.3 °F 61.8 °F 30.23 in East 3.0 mph 8.0 mph 61 % 0.00 in 833 W/m2
11:42 76.3 °F 62.3 °F 30.23 in East 2.0 mph 6.0 mph 62 % 0.00 in 828 W/m2
11:47 76.8 °F 62.3 °F 30.23 in ENE 3.0 mph 7.0 mph 61 % 0.00 in 838 W/m2
11:48 76.8 °F 62.3 °F 30.23 in ENE 3.0 mph 7.0 mph 61 % 0.00 in 838 W/m2
11:53 77.4 °F 61.9 °F 30.22 in SE 4.0 mph 8.0 mph 59 % 0.00 in 846 W/m2
11:58 76.6 °F 62.2 °F 30.22 in South 5.0 mph 9.0 mph 61 % 0.00 in 853 W/m2
12:03 76.6 °F 62.2 °F 30.22 in ESE 4.0 mph 9.0 mph 61 % 0.00 in 853 W/m2
12:08 76.8 °F 61.9 °F 30.22 in ENE 4.0 mph 7.0 mph 60 % 0.00 in 870 W/m2
12:13 76.8 °F 61.9 °F 30.22 in ENE 4.0 mph 7.0 mph 60 % 0.00 in 847 W/m2
12:18 77.2 °F 61.7 °F 30.22 in East 4.0 mph 9.0 mph 59 % 0.00 in 868 W/m2
12:23 77.4 °F 61.4 °F 30.22 in East 4.0 mph 10.0 mph 58 % 0.00 in 868 W/m2
12:28 77.5 °F 62.1 °F 30.21 in ESE 3.0 mph 10.0 mph 59 % 0.00 in 851 W/m2
12:33 78.1 °F 61.6 °F 30.21 in ESE 4.0 mph 12.0 mph 57 % 0.00 in 856 W/m2
12:38 77.9 °F 61.4 °F 30.21 in ESE 4.0 mph 12.0 mph 57 % 0.00 in 849 W/m2
12:43 78.3 °F 61.8 °F 30.21 in ESE 3.0 mph 7.0 mph 57 % 0.00 in 874 W/m2
12:48 78.4 °F 61.4 °F 30.21 in SSE 3.0 mph 7.0 mph 56 % 0.00 in 879 W/m2
12:53 78.6 °F 61.6 °F 30.21 in SE 4.0 mph 11.0 mph 56 % 0.00 in 882 W/m2
12:58 79.0 °F 60.9 °F 30.21 in SE 5.0 mph 11.0 mph 54 % 0.00 in 900 W/m2
13:03 79.0 °F 61.4 °F 30.21 in SE 4.0 mph 9.0 mph 55 % 0.00 in 898 W/m2
13:08 79.0 °F 61.4 °F 30.21 in South 4.0 mph 9.0 mph 55 % 0.00 in 891 W/m2
13:13 79.3 °F 60.7 °F 30.21 in SE 5.0 mph 10.0 mph 53 % 0.00 in 849 W/m2
13:18 79.2 °F 60.6 °F 30.21 in ESE 5.0 mph 10.0 mph 53 % 0.00 in 881 W/m2
13:23 79.3 °F 59.6 °F 30.21 in SE 6.0 mph 12.0 mph 51 % 0.00 in 902 W/m2
13:28 79.5 °F 60.4 °F 30.20 in SSE 5.0 mph 12.0 mph 52 % 0.00 in 900 W/m2
13:33 79.7 °F 60.0 °F 30.21 in SE 4.0 mph 10.0 mph 51 % 0.00 in 896 W/m2
13:38 79.9 °F 59.6 °F 30.20 in SE 4.0 mph 9.0 mph 50 % 0.00 in 874 W/m2
13:43 79.7 °F 58.8 °F 30.20 in ESE 3.0 mph 8.0 mph 49 % 0.00 in 868 W/m2
13:48 79.5 °F 59.2 °F 30.20 in ESE 4.0 mph 9.0 mph 50 % 0.00 in 865 W/m2
13:53 80.1 °F 58.6 °F 30.20 in ESE 2.0 mph 10.0 mph 48 % 0.00 in 867 W/m2
13:54 80.1 °F 58.6 °F 30.20 in ESE 3.0 mph 10.0 mph 48 % 0.00 in 867 W/m2
13:59 80.1 °F 58.6 °F 30.20 in ESE 4.0 mph 10.0 mph 48 % 0.00 in 865 W/m2
14:04 80.1 °F 59.7 °F 30.20 in ESE 5.0 mph 10.0 mph 50 % 0.00 in 849 W/m2
14:09 80.2 °F 61.0 °F 30.20 in ESE 4.0 mph 10.0 mph 52 % 0.00 in 853 W/m2
14:14 80.4 °F 60.1 °F 30.20 in ESE 3.0 mph 9.0 mph 50 % 0.00 in 831 W/m2
14:19 80.4 °F 59.5 °F 30.20 in SSE 5.0 mph 12.0 mph 49 % 0.00 in 840 W/m2
14:24 80.2 °F 59.3 °F 30.19 in South 7.0 mph 12.0 mph 49 % 0.00 in 828 W/m2
14:29 80.1 °F 59.2 °F 30.19 in SSE 6.0 mph 13.0 mph 49 % 0.00 in 833 W/m2
14:34 80.1 °F 59.7 °F 30.19 in ESE 6.0 mph 13.0 mph 50 % 0.00 in 828 W/m2
14:39 80.1 °F 59.7 °F 30.19 in ESE 7.0 mph 11.0 mph 50 % 0.00 in 833 W/m2
14:45 80.2 °F 59.3 °F 30.19 in SE 7.0 mph 11.0 mph 49 % 0.00 in 812 W/m2
14:50 80.2 °F 59.9 °F 30.19 in SSE 6.0 mph 14.0 mph 50 % 0.00 in 800 W/m2
15:00 80.2 °F 59.3 °F 30.18 in SSE 6.0 mph 12.0 mph 49 % 0.00 in 796 W/m2
15:05 80.2 °F 59.3 °F 30.18 in SSE 5.0 mph 12.0 mph 49 % 0.00 in 777 W/m2
15:10 80.2 °F 58.8 °F 30.18 in ESE 4.0 mph 11.0 mph 48 % 0.00 in 775 W/m2
15:15 80.6 °F 59.1 °F 30.18 in ESE 6.0 mph 12.0 mph 48 % 0.00 in 779 W/m2
15:20 80.4 °F 58.9 °F 30.18 in ESE 6.0 mph 12.0 mph 48 % 0.00 in 759 W/m2
15:25 80.4 °F 58.9 °F 30.18 in SSE 5.0 mph 9.0 mph 48 % 0.00 in 765 W/m2
15:30 80.6 °F 59.1 °F 30.18 in SSE 6.0 mph 11.0 mph 48 % 0.00 in 744 W/m2
15:35 81.1 °F 59.0 °F 30.18 in SE 6.0 mph 11.0 mph 47 % 0.00 in 726 W/m2
15:40 81.0 °F 59.4 °F 30.18 in ESE 5.0 mph 10.0 mph 48 % 0.00 in 722 W/m2
15:45 81.1 °F 59.6 °F 30.18 in SE 5.0 mph 9.0 mph 48 % 0.00 in 708 W/m2
15:50 81.0 °F 60.0 °F 30.18 in SE 5.0 mph 9.0 mph 49 % 0.00 in 708 W/m2
15:55 81.3 °F 59.8 °F 30.17 in SE 6.0 mph 12.0 mph 48 % 0.00 in 691 W/m2
16:00 81.1 °F 59.6 °F 30.17 in South 6.0 mph 12.0 mph 48 % 0.00 in 670 W/m2
16:05 81.3 °F 60.3 °F 30.17 in SSE 7.0 mph 12.0 mph 49 % 0.00 in 666 W/m2
16:10 81.0 °F 60.0 °F 30.17 in ESE 7.0 mph 12.0 mph 49 % 0.00 in 652 W/m2
16:15 81.1 °F 59.6 °F 30.17 in ESE 5.0 mph 12.0 mph 48 % 0.00 in 649 W/m2
16:20 81.3 °F 59.2 °F 30.17 in SE 5.0 mph 12.0 mph 47 % 0.00 in 642 W/m2
16:25 81.3 °F 59.8 °F 30.17 in SE 6.0 mph 13.0 mph 48 % 0.00 in 613 W/m2
16:30 81.1 °F 59.6 °F 30.17 in SE 6.0 mph 13.0 mph 48 % 0.00 in 605 W/m2
16:35 81.0 °F 59.4 °F 30.17 in ESE 6.0 mph 10.0 mph 48 % 0.00 in 601 W/m2
16:38 81.0 °F 60.0 °F 30.17 in ESE 6.0 mph 12.0 mph 49 % 0.00 in 584 W/m2
16:43 81.0 °F 60.6 °F 30.17 in SE 6.0 mph 12.0 mph 50 % 0.00 in 570 W/m2
16:48 81.0 °F 60.6 °F 30.17 in SE 5.0 mph 9.0 mph 50 % 0.00 in 543 W/m2
16:53 80.8 °F 59.8 °F 30.17 in SE 6.0 mph 11.0 mph 49 % 0.00 in 545 W/m2
16:58 80.8 °F 59.8 °F 30.16 in SE 6.0 mph 11.0 mph 49 % 0.00 in 508 W/m2
17:03 80.8 °F 59.3 °F 30.16 in SE 6.0 mph 10.0 mph 48 % 0.00 in 515 W/m2
17:04 80.6 °F 59.1 °F 30.16 in SE 6.0 mph 10.0 mph 48 % 0.00 in 520 W/m2
17:09 80.8 °F 60.4 °F 30.16 in SSE 6.0 mph 13.0 mph 50 % 0.00 in 513 W/m2
17:14 80.8 °F 61.0 °F 30.16 in SSE 6.0 mph 13.0 mph 51 % 0.00 in 496 W/m2
17:19 81.0 °F 60.6 °F 30.16 in SSE 5.0 mph 10.0 mph 50 % 0.00 in 490 W/m2
17:25 81.0 °F 61.7 °F 30.16 in SE 6.0 mph 12.0 mph 52 % 0.00 in 483 W/m2
17:30 80.4 °F 61.2 °F 30.16 in ESE 7.0 mph 12.0 mph 52 % 0.00 in 461 W/m2
17:35 80.2 °F 61.6 °F 30.16 in ESE 6.0 mph 11.0 mph 53 % 0.00 in 443 W/m2
17:39 80.4 °F 61.2 °F 30.15 in ESE 5.0 mph 10.0 mph 52 % 0.00 in 429 W/m2
17:45 80.2 °F 59.9 °F 30.15 in ESE 6.0 mph 11.0 mph 50 % 0.00 in 425 W/m2
17:50 80.2 °F 60.5 °F 30.15 in ESE 6.0 mph 11.0 mph 51 % 0.00 in 362 W/m2
17:55 80.1 °F 60.8 °F 30.15 in ESE 6.0 mph 10.0 mph 52 % 0.00 in 385 W/m2
18:00 79.9 °F 61.2 °F 30.15 in ESE 6.0 mph 11.0 mph 53 % 0.00 in 362 W/m2
18:01 79.9 °F 61.2 °F 30.15 in ESE 6.0 mph 11.0 mph 53 % 0.00 in 360 W/m2
18:06 79.9 °F 61.7 °F 30.15 in ESE 6.0 mph 11.0 mph 54 % 0.00 in 367 W/m2
18:11 80.1 °F 61.4 °F 30.15 in ESE 6.0 mph 11.0 mph 53 % 0.00 in 339 W/m2
18:16 79.9 °F 60.7 °F 30.14 in SE 6.0 mph 11.0 mph 52 % 0.00 in 320 W/m2
18:21 79.9 °F 61.2 °F 30.15 in SE 6.0 mph 11.0 mph 53 % 0.00 in 315 W/m2
18:26 79.9 °F 61.2 °F 30.15 in ESE 6.0 mph 11.0 mph 53 % 0.00 in 302 W/m2
18:31 79.5 °F 60.9 °F 30.15 in ESE 6.0 mph 10.0 mph 53 % 0.00 in 292 W/m2
18:36 79.3 °F 60.7 °F 30.14 in SE 6.0 mph 10.0 mph 53 % 0.00 in 278 W/m2
18:41 79.3 °F 60.2 °F 30.14 in SE 6.0 mph 11.0 mph 52 % 0.00 in 260 W/m2
18:46 79.2 °F 60.0 °F 30.14 in ESE 6.0 mph 11.0 mph 52 % 0.00 in 243 W/m2
18:48 79.2 °F 60.0 °F 30.14 in ESE 6.0 mph 11.0 mph 52 % 0.00 in 241 W/m2
18:53 79.2 °F 59.5 °F 30.14 in ESE 6.0 mph 11.0 mph 51 % 0.00 in 234 W/m2
18:58 79.0 °F 59.9 °F 30.14 in ESE 7.0 mph 11.0 mph 52 % 0.00 in 216 W/m2
19:03 78.8 °F 60.2 °F 30.14 in ESE 6.0 mph 10.0 mph 53 % 0.00 in 204 W/m2
19:08 78.8 °F 60.2 °F 30.14 in ESE 6.0 mph 10.0 mph 53 % 0.00 in 192 W/m2
19:13 78.6 °F 60.6 °F 30.14 in ESE 6.0 mph 11.0 mph 54 % 0.00 in 183 W/m2
19:18 78.4 °F 60.9 °F 30.14 in ESE 6.0 mph 11.0 mph 55 % 0.00 in 169 W/m2
19:20 78.3 °F 60.8 °F 30.14 in ESE 6.0 mph 10.0 mph 55 % 0.00 in 165 W/m2
19:25 78.3 °F 61.3 °F 30.14 in ESE 5.0 mph 10.0 mph 56 % 0.00 in 156 W/m2
19:30 78.1 °F 61.1 °F 30.14 in SE 5.0 mph 11.0 mph 56 % 0.00 in 142 W/m2
19:35 77.7 °F 60.8 °F 30.13 in SE 6.0 mph 11.0 mph 56 % 0.00 in 132 W/m2
19:40 77.5 °F 61.1 °F 30.13 in ESE 7.0 mph 11.0 mph 57 % 0.00 in 123 W/m2
19:45 77.2 °F 61.3 °F 30.13 in ESE 6.0 mph 9.0 mph 58 % 0.00 in 113 W/m2
19:50 76.8 °F 61.4 °F 30.13 in ESE 6.0 mph 11.0 mph 59 % 0.00 in 65 W/m2
19:55 76.5 °F 61.1 °F 30.13 in ESE 7.0 mph 11.0 mph 59 % 0.00 in 47 W/m2
20:00 76.3 °F 61.4 °F 30.13 in ESE 7.0 mph 10.0 mph 60 % 0.00 in 44 W/m2
20:05 75.9 °F 61.0 °F 30.13 in SE 6.0 mph 10.0 mph 60 % 0.00 in 37 W/m2
20:10 75.6 °F 61.2 °F 30.14 in ESE 6.0 mph 10.0 mph 61 % 0.00 in 35 W/m2
20:15 75.4 °F 61.0 °F 30.13 in SE 7.0 mph 11.0 mph 61 % 0.00 in 33 W/m2
20:20 75.0 °F 61.1 °F 30.13 in SE 6.0 mph 11.0 mph 62 % 0.00 in 30 W/m2
20:25 74.7 °F 60.8 °F 30.13 in ESE 7.0 mph 12.0 mph 62 % 0.00 in 26 W/m2
20:30 74.5 °F 61.1 °F 30.14 in ESE 7.0 mph 12.0 mph 63 % 0.00 in 25 W/m2
20:35 74.1 °F 61.2 °F 30.14 in ESE 6.0 mph 10.0 mph 64 % 0.00 in 23 W/m2
20:40 73.9 °F 61.0 °F 30.14 in ESE 5.0 mph 8.0 mph 64 % 0.00 in 19 W/m2
20:45 73.8 °F 60.8 °F 30.14 in ESE 5.0 mph 8.0 mph 64 % 0.00 in 18 W/m2
20:50 73.6 °F 61.1 °F 30.14 in SE 4.0 mph 8.0 mph 65 % 0.00 in 14 W/m2
20:55 73.2 °F 61.2 °F 30.14 in ESE 4.0 mph 8.0 mph 66 % 0.00 in 12 W/m2
21:00 73.0 °F 61.0 °F 30.14 in ESE 3.0 mph 7.0 mph 66 % 0.00 in 11 W/m2
21:05 72.7 °F 61.1 °F 30.14 in ESE 3.0 mph 7.0 mph 67 % 0.00 in 9 W/m2
21:10 72.5 °F 60.9 °F 30.14 in SE 3.0 mph 7.0 mph 67 % 0.00 in 7 W/m2
21:15 72.1 °F 61.0 °F 30.14 in ESE 3.0 mph 7.0 mph 68 % 0.00 in 5 W/m2
21:20 72.0 °F 60.8 °F 30.14 in ESE 3.0 mph 6.0 mph 68 % 0.00 in 0 W/m2
21:25 71.8 °F 60.6 °F 30.14 in ESE 3.0 mph 6.0 mph 68 % 0.00 in 0 W/m2
21:30 71.2 °F 60.5 °F 30.14 in ESE 3.0 mph 6.0 mph 69 % 0.00 in 0 W/m2
21:31 71.2 °F 60.5 °F 30.14 in ESE 3.0 mph 6.0 mph 69 % 0.00 in 0 W/m2
21:36 71.1 °F 60.4 °F 30.14 in ESE 4.0 mph 6.0 mph 69 % 0.00 in 0 W/m2
21:41 70.9 °F 60.2 °F 30.14 in ESE 4.0 mph 6.0 mph 69 % 0.00 in 0 W/m2
21:46 70.5 °F 60.3 °F 30.14 in ESE 3.0 mph 5.0 mph 70 % 0.00 in 0 W/m2
21:51 70.3 °F 60.5 °F 30.14 in East 3.0 mph 6.0 mph 71 % 0.00 in 0 W/m2
21:56 70.2 °F 60.7 °F 30.15 in ESE 4.0 mph 8.0 mph 72 % 0.00 in 0 W/m2
22:01 70.0 °F 60.5 °F 30.15 in ESE 5.0 mph 10.0 mph 72 % 0.00 in 0 W/m2
22:06 69.6 °F 60.6 °F 30.15 in ESE 5.0 mph 10.0 mph 73 % 0.00 in 0 W/m2
22:11 69.4 °F 60.4 °F 30.15 in ESE 6.0 mph 10.0 mph 73 % 0.00 in 0 W/m2
22:16 69.3 °F 60.6 °F 30.15 in ESE 6.0 mph 10.0 mph 74 % 0.00 in 0 W/m2
22:21 69.1 °F 60.8 °F 30.15 in ESE 6.0 mph 9.0 mph 75 % 0.00 in 0 W/m2
22:26 68.7 °F 60.5 °F 30.15 in ESE 5.0 mph 9.0 mph 75 % 0.00 in 0 W/m2
22:31 68.5 °F 60.7 °F 30.15 in ESE 4.0 mph 8.0 mph 76 % 0.00 in 0 W/m2
22:36 68.4 °F 60.9 °F 30.15 in ESE 3.0 mph 6.0 mph 77 % 0.00 in 0 W/m2
22:41 68.2 °F 61.1 °F 30.15 in ESE 3.0 mph 6.0 mph 78 % 0.00 in 0 W/m2
22:46 67.8 °F 61.1 °F 30.15 in ESE 4.0 mph 6.0 mph 79 % 0.00 in 0 W/m2
22:51 67.6 °F 60.9 °F 30.15 in ESE 3.0 mph 6.0 mph 79 % 0.00 in 0 W/m2
22:56 67.5 °F 61.1 °F 30.15 in ESE 2.0 mph 5.0 mph 80 % 0.00 in 0 W/m2
23:01 67.3 °F 60.9 °F 30.15 in ESE 1.0 mph 5.0 mph 80 % 0.00 in 0 W/m2
23:06 66.9 °F 60.5 °F 30.15 in ESE 1.0 mph 5.0 mph 80 % 0.00 in 0 W/m2
23:11 66.7 °F 60.4 °F 30.15 in Calm   3.0 mph 80 % 0.00 in 0 W/m2
23:16 66.4 °F 60.4 °F 30.15 in Calm   2.0 mph 81 % 0.00 in 0 W/m2
23:17 66.4 °F 60.4 °F 30.15 in Calm   2.0 mph 81 % 0.00 in 0 W/m2
23:22 66.0 °F 60.0 °F 30.16 in Calm   2.0 mph 81 % 0.00 in 0 W/m2
23:27 65.8 °F 59.8 °F 30.15 in Calm   2.0 mph 81 % 0.00 in 0 W/m2
23:32 65.7 °F 59.7 °F 30.15 in Calm   2.0 mph 81 % 0.00 in 0 W/m2
23:37 65.5 °F 59.8 °F 30.15 in Calm   2.0 mph 82 % 0.00 in 0 W/m2
23:42 65.1 °F 59.8 °F 30.15 in ESE 1.0 mph 5.0 mph 83 % 0.00 in 0 W/m2
23:47 65.1 °F 59.8 °F 30.15 in ESE 1.0 mph 5.0 mph 83 % 0.00 in 0 W/m2
23:52 64.9 °F 59.7 °F 30.15 in SE 1.0 mph 6.0 mph 83 % 0.00 in 0 W/m2
23:57 64.9 °F 59.7 °F 30.15 in SE 1.0 mph 6.0 mph 83 % 0.00 in 0 W/m2
Delerius-Weather
Compliments of Weather Underground - 2.25 mb

Data updates at regular intervals.